createdAt,value
2023-10-08T00:01:20.388Z,10.18
2023-10-08T00:03:52.315Z,6.63
2023-10-08T00:06:24.726Z,8.25
2023-10-08T00:08:52.208Z,6.40
2023-10-08T00:11:20.181Z,9.48
2023-10-08T00:13:49.808Z,11.45
2023-10-08T00:16:18.219Z,7.65
2023-10-08T00:18:53.065Z,8.10
2023-10-08T00:21:29.549Z,8.82
2023-10-08T00:24:00.912Z,7.50
2023-10-08T00:26:33.247Z,7.28
2023-10-08T00:29:08.042Z,10.02
2023-10-08T00:31:42.129Z,8.27
2023-10-08T00:34:15.356Z,7.03
2023-10-08T00:36:44.900Z,9.20
2023-10-08T00:39:23.610Z,9.40
2023-10-08T00:41:59.408Z,8.88
2023-10-08T00:44:40.586Z,7.35
2023-10-08T00:47:08.294Z,9.23
2023-10-08T00:49:44.408Z,10.77
2023-10-08T00:52:14.716Z,10.57
2023-10-08T00:54:49.890Z,7.03
2023-10-08T00:57:24.714Z,8.68
2023-10-08T00:59:55.042Z,8.23
2023-10-08T01:02:28.485Z,7.15
2023-10-08T01:04:57.073Z,11.55
2023-10-08T01:07:26.365Z,6.38
2023-10-08T01:10:06.888Z,8.20
2023-10-08T01:12:33.761Z,8.32
2023-10-08T01:15:24.884Z,7.97
2023-10-08T01:18:01.024Z,8.60
2023-10-08T01:20:37.602Z,8.52
2023-10-08T01:23:05.400Z,9.68
2023-10-08T01:25:32.382Z,6.35
2023-10-08T01:28:09.454Z,6.95
2023-10-08T01:30:42.884Z,9.30
2023-10-08T01:33:16.066Z,8.75
2023-10-08T01:35:43.848Z,10.07
2023-10-08T01:38:14.445Z,7.13
2023-10-08T01:40:42.873Z,9.05
2023-10-08T01:43:12.698Z,10.48
2023-10-08T01:45:44.452Z,6.53
2023-10-08T01:48:11.538Z,8.63
2023-10-08T01:50:39.307Z,8.23
2023-10-08T01:53:11.675Z,8.18
2023-10-08T01:55:50.749Z,7.18
2023-10-08T01:58:19.619Z,7.82
2023-10-08T02:00:48.450Z,5.93
2023-10-08T02:03:17.550Z,6.38
2023-10-08T02:05:46.302Z,11.02
2023-10-08T02:08:15.237Z,7.15
2023-10-08T02:10:45.112Z,8.90
2023-10-08T02:13:12.082Z,8.65
2023-10-08T02:15:54.769Z,7.60
2023-10-08T02:18:26.492Z,10.35
2023-10-08T02:20:54.073Z,6.90
2023-10-08T02:23:21.127Z,9.35
2023-10-08T02:25:49.327Z,9.10
2023-10-08T02:28:17.029Z,7.28
2023-10-08T02:30:44.861Z,9.10
2023-10-08T02:33:18.269Z,6.82
2023-10-08T02:35:48.059Z,9.35
2023-10-08T02:38:18.365Z,9.35
2023-10-08T02:40:48.728Z,9.88
2023-10-08T02:43:17.350Z,7.97
2023-10-08T02:45:51.904Z,9.68
2023-10-08T02:48:19.602Z,9.50
2023-10-08T02:50:47.035Z,9.18
2023-10-08T02:53:19.172Z,10.32
2023-10-08T02:55:47.842Z,8.70
2023-10-08T02:58:16.382Z,10.23
2023-10-08T03:00:47.924Z,8.35
2023-10-08T03:03:17.117Z,7.97
2023-10-08T03:05:50.484Z,13.32
2023-10-08T03:08:23.205Z,9.43
2023-10-08T03:11:04.113Z,10.70
2023-10-08T03:13:31.244Z,7.97
2023-10-08T03:16:04.292Z,8.88
2023-10-08T03:18:38.548Z,10.93
2023-10-08T03:21:24.207Z,8.48
2023-10-08T03:23:53.049Z,8.60
2023-10-08T03:26:40.853Z,9.90
2023-10-08T03:29:16.550Z,7.70
2023-10-08T03:31:49.815Z,7.70
2023-10-08T03:34:20.232Z,8.10
2023-10-08T03:36:50.781Z,7.93
2023-10-08T03:39:20.682Z,6.53
2023-10-08T03:42:07.396Z,8.75
2023-10-08T03:44:38.357Z,10.93
2023-10-08T03:47:11.977Z,9.25
2023-10-08T03:49:46.007Z,9.73
2023-10-08T03:52:16.483Z,8.23
2023-10-08T03:54:50.152Z,10.90
2023-10-08T03:57:26.597Z,11.15
2023-10-08T03:59:59.829Z,8.68
2023-10-08T04:02:43.006Z,6.10
2023-10-08T04:05:19.882Z,10.32
2023-10-08T04:07:59.586Z,7.38
2023-10-08T04:11:00.508Z,13.30
2023-10-08T04:13:27.454Z,10.48
2023-10-08T04:15:54.550Z,12.02
2023-10-08T04:18:21.701Z,9.95
2023-10-08T04:21:09.092Z,9.45
2023-10-08T04:23:39.545Z,9.27
2023-10-08T04:26:07.845Z,9.25
2023-10-08T04:28:36.290Z,8.40
2023-10-08T04:31:15.356Z,8.38
2023-10-08T04:33:46.668Z,9.80
2023-10-08T04:36:19.194Z,8.30
2023-10-08T04:38:49.101Z,8.55
2023-10-08T04:41:20.400Z,9.50
2023-10-08T04:43:50.683Z,9.77
2023-10-08T04:46:20.935Z,8.75
2023-10-08T04:48:48.195Z,9.77
2023-10-08T04:51:15.088Z,12.27
2023-10-08T04:53:45.159Z,10.07
2023-10-08T04:56:24.305Z,9.23
2023-10-08T04:58:51.302Z,11.43
2023-10-08T05:01:29.096Z,10.77
2023-10-08T05:03:57.832Z,10.45
2023-10-08T05:06:49.230Z,7.97
2023-10-08T05:09:20.048Z,8.70
2023-10-08T05:11:52.890Z,10.60
2023-10-08T05:14:32.993Z,8.70
2023-10-08T05:17:12.740Z,11.30
2023-10-08T05:19:41.939Z,10.15
2023-10-08T05:22:29.445Z,10.75
2023-10-08T05:25:16.785Z,12.43
2023-10-08T05:27:48.736Z,9.90
2023-10-08T05:30:32.873Z,8.38
2023-10-08T05:33:17.934Z,7.80
2023-10-08T05:35:47.276Z,11.35
2023-10-08T05:38:37.185Z,9.80
2023-10-08T05:41:04.093Z,9.68
2023-10-08T05:43:42.794Z,9.85
2023-10-08T05:46:24.685Z,9.80
2023-10-08T05:49:07.345Z,11.27
2023-10-08T05:52:01.134Z,11.25
2023-10-08T05:54:28.089Z,9.18
2023-10-08T05:57:12.290Z,12.48
2023-10-08T05:59:57.078Z,6.53
2023-10-08T06:02:49.564Z,8.65
2023-10-08T06:05:16.700Z,10.65
2023-10-08T06:07:57.011Z,8.70
2023-10-08T06:10:31.944Z,8.77
2023-10-08T06:13:11.060Z,10.95
2023-10-08T06:15:49.906Z,9.63
2023-10-08T06:18:27.106Z,9.60
2023-10-08T06:21:11.298Z,12.13
2023-10-08T06:23:43.432Z,15.15
2023-10-08T06:26:10.623Z,11.93
2023-10-08T06:28:39.870Z,12.05
2023-10-08T06:31:12.600Z,10.02
2023-10-08T06:33:42.480Z,16.35
2023-10-08T06:36:13.735Z,10.63
2023-10-08T06:38:49.754Z,11.43
2023-10-08T06:41:29.899Z,8.20
2023-10-08T06:44:14.209Z,14.05
2023-10-08T06:46:41.434Z,15.90
2023-10-08T06:49:13.737Z,14.93
2023-10-08T06:51:44.402Z,15.13
2023-10-08T06:54:18.716Z,18.35
2023-10-08T06:56:53.502Z,16.05
2023-10-08T06:59:24.700Z,14.40
2023-10-08T07:01:52.849Z,16.35
2023-10-08T07:04:23.166Z,12.68
2023-10-08T07:06:51.863Z,14.80
2023-10-08T07:09:28.837Z,12.80
2023-10-08T07:11:57.764Z,16.10
2023-10-08T07:14:31.162Z,18.35
2023-10-08T07:17:01.519Z,15.68
2023-10-08T07:19:38.738Z,15.85
2023-10-08T07:22:23.112Z,19.92
2023-10-08T07:24:52.790Z,15.93
2023-10-08T07:27:25.185Z,16.50
2023-10-08T07:29:56.535Z,15.55
2023-10-08T07:32:26.713Z,17.35
2023-10-08T07:34:59.042Z,18.70
2023-10-08T07:37:27.703Z,20.95
2023-10-08T07:39:56.415Z,24.33
2023-10-08T07:42:23.499Z,19.88
2023-10-08T07:44:55.494Z,18.40
2023-10-08T07:47:22.813Z,24.10
2023-10-08T07:49:52.072Z,21.50
2023-10-08T07:52:19.254Z,17.50
2023-10-08T07:54:46.235Z,22.75
2023-10-08T07:57:14.006Z,22.70
2023-10-08T07:59:45.822Z,22.98
2023-10-08T08:02:13.805Z,28.60
2023-10-08T08:04:44.584Z,22.48
2023-10-08T08:07:20.503Z,27.88
2023-10-08T08:09:59.575Z,21.33
2023-10-08T08:12:34.097Z,29.73
2023-10-08T08:15:04.618Z,28.15
2023-10-08T08:17:32.298Z,24.15
2023-10-08T08:19:59.480Z,21.83
2023-10-08T08:22:32.544Z,23.70
2023-10-08T08:25:17.451Z,17.98
2023-10-08T08:27:47.977Z,28.17
2023-10-08T08:30:19.133Z,21.73
2023-10-08T08:32:53.627Z,25.25
2023-10-08T08:35:21.547Z,21.83
2023-10-08T08:37:50.950Z,24.05
2023-10-08T08:40:20.983Z,23.92
2023-10-08T08:42:53.589Z,23.50
2023-10-08T08:45:23.390Z,22.40
2023-10-08T08:47:50.783Z,26.95
2023-10-08T08:50:19.101Z,23.85
2023-10-08T08:52:47.281Z,23.98
2023-10-08T08:55:16.155Z,26.60
2023-10-08T08:57:53.856Z,23.35
2023-10-08T09:00:29.567Z,25.58
2023-10-08T09:02:57.075Z,24.50
2023-10-08T09:05:28.286Z,22.23
2023-10-08T09:08:07.345Z,21.88
2023-10-08T09:10:52.121Z,21.60
2023-10-08T09:13:22.951Z,24.13
2023-10-08T09:15:56.829Z,28.30
2023-10-08T09:18:30.151Z,25.17
2023-10-08T09:20:57.349Z,24.60
2023-10-08T09:23:26.498Z,27.63
2023-10-08T09:26:03.856Z,28.05
2023-10-08T09:28:35.515Z,28.50
2023-10-08T09:31:05.925Z,29.35
2023-10-08T09:33:33.897Z,24.90
2023-10-08T09:36:03.549Z,33.55
2023-10-08T09:38:31.455Z,28.65
2023-10-08T09:41:04.023Z,31.60
2023-10-08T09:43:33.280Z,29.23
2023-10-08T09:46:19.335Z,31.20
2023-10-08T09:49:02.497Z,35.15
2023-10-08T09:51:34.523Z,30.52
2023-10-08T09:54:26.027Z,34.78
2023-10-08T09:56:55.245Z,36.03
2023-10-08T09:59:23.635Z,34.65
2023-10-08T10:01:54.289Z,31.27
2023-10-08T10:04:33.274Z,38.45
2023-10-08T10:07:17.938Z,33.60
2023-10-08T10:09:47.899Z,37.40
2023-10-08T10:12:26.574Z,37.08
2023-10-08T10:14:58.386Z,38.55
2023-10-08T10:17:44.715Z,34.58
2023-10-08T10:20:15.973Z,28.02
2023-10-08T10:22:45.669Z,33.17
2023-10-08T10:25:20.320Z,36.35
2023-10-08T10:28:00.067Z,37.83
2023-10-08T10:30:28.784Z,35.05
2023-10-08T10:32:58.807Z,39.00
2023-10-08T10:35:25.760Z,37.45
2023-10-08T10:37:52.917Z,34.70
2023-10-08T10:40:30.414Z,33.22
2023-10-08T10:43:01.976Z,35.38
2023-10-08T10:45:38.220Z,33.17
2023-10-08T10:48:20.839Z,34.65
2023-10-08T10:51:09.834Z,37.78
2023-10-08T10:53:57.582Z,36.17
2023-10-08T10:56:32.135Z,35.65
2023-10-08T10:59:16.968Z,40.45
2023-10-08T11:01:49.833Z,30.95
2023-10-08T11:04:20.862Z,32.38
2023-10-08T11:06:52.086Z,32.42
2023-10-08T11:09:36.774Z,33.38
2023-10-08T11:12:12.168Z,28.60
2023-10-08T11:14:43.977Z,35.33
2023-10-08T11:17:26.302Z,25.02
2023-10-08T11:19:53.689Z,31.45
2023-10-08T11:22:24.002Z,33.05
2023-10-08T11:24:55.314Z,40.05
2023-10-08T11:27:36.673Z,30.17
2023-10-08T11:30:12.058Z,27.85
2023-10-08T11:32:42.388Z,30.77
2023-10-08T11:35:17.514Z,24.98
2023-10-08T11:37:59.113Z,28.40
2023-10-08T11:40:31.153Z,27.23
2023-10-08T11:43:04.653Z,25.05
2023-10-08T11:45:40.689Z,28.10
2023-10-08T11:48:13.653Z,23.27
2023-10-08T11:50:41.710Z,23.33
2023-10-08T11:53:09.315Z,28.15
2023-10-08T11:55:39.913Z,25.85
2023-10-08T11:58:18.533Z,28.20
2023-10-08T12:00:47.624Z,25.85
2023-10-08T12:03:20.656Z,27.00
2023-10-08T12:05:50.687Z,29.55
2023-10-08T12:08:24.280Z,25.50
2023-10-08T12:10:55.590Z,25.52
2023-10-08T12:13:26.294Z,25.83
2023-10-08T12:16:15.682Z,21.45
2023-10-08T12:18:44.703Z,25.50
2023-10-08T12:21:12.408Z,31.00
2023-10-08T12:23:40.055Z,22.38
2023-10-08T12:26:09.140Z,30.13
2023-10-08T12:28:37.582Z,24.48
2023-10-08T12:31:07.400Z,23.80
2023-10-08T12:33:35.177Z,29.35
2023-10-08T12:36:12.325Z,20.40
2023-10-08T12:38:44.461Z,21.42
2023-10-08T12:41:14.297Z,22.13
2023-10-08T12:43:46.813Z,26.42
2023-10-08T12:46:19.655Z,25.45
2023-10-08T12:48:49.676Z,22.65
2023-10-08T12:51:17.131Z,25.63
2023-10-08T12:53:51.865Z,25.95
2023-10-08T12:56:22.894Z,26.33
2023-10-08T12:58:49.980Z,23.55
2023-10-08T13:01:19.878Z,22.23
2023-10-08T13:03:50.846Z,25.20
2023-10-08T13:06:29.470Z,22.60
2023-10-08T13:09:00.604Z,21.95
2023-10-08T13:11:30.686Z,17.95
2023-10-08T13:13:58.628Z,32.70
2023-10-08T13:16:32.660Z,22.95
2023-10-08T13:19:00.608Z,23.83
2023-10-08T13:21:29.699Z,22.65
2023-10-08T13:23:58.434Z,21.27
2023-10-08T13:26:27.203Z,21.55
2023-10-08T13:28:55.541Z,23.50
2023-10-08T13:31:23.146Z,24.92
2023-10-08T13:33:50.454Z,21.92
2023-10-08T13:36:19.681Z,23.10
2023-10-08T13:38:47.725Z,20.77
2023-10-08T13:41:19.115Z,20.63
2023-10-08T13:43:52.680Z,24.67
2023-10-08T13:46:24.160Z,21.50
2023-10-08T13:48:51.640Z,19.65
2023-10-08T13:51:27.098Z,19.95
2023-10-08T13:54:04.303Z,21.73
2023-10-08T13:56:32.532Z,21.98
2023-10-08T13:59:13.437Z,19.45
2023-10-08T14:01:53.402Z,18.27
2023-10-08T14:04:21.658Z,18.35
2023-10-08T14:06:53.815Z,19.10
2023-10-08T14:09:42.825Z,18.77
2023-10-08T14:12:11.480Z,18.63
2023-10-08T14:14:42.316Z,18.08
2023-10-08T14:17:09.402Z,17.77
2023-10-08T14:19:53.047Z,20.67
2023-10-08T14:22:24.004Z,19.98
2023-10-08T14:25:00.045Z,18.95
2023-10-08T14:27:34.610Z,21.52
2023-10-08T14:30:07.128Z,26.50
2023-10-08T14:32:34.844Z,17.45
2023-10-08T14:35:20.580Z,19.67
2023-10-08T14:38:06.139Z,19.67
2023-10-08T14:40:51.733Z,18.33
2023-10-08T14:43:21.549Z,20.85
2023-10-08T14:45:48.819Z,18.65
2023-10-08T14:48:16.236Z,21.48
2023-10-08T14:50:43.790Z,22.23
2023-10-08T14:53:11.159Z,18.25
2023-10-08T14:55:40.241Z,19.23
2023-10-08T14:58:09.641Z,25.63
2023-10-08T15:00:38.716Z,21.63
2023-10-08T15:03:06.482Z,22.42
2023-10-08T15:05:34.024Z,24.00
2023-10-08T15:08:01.291Z,21.27
2023-10-08T15:10:28.277Z,22.17
2023-10-08T15:12:55.438Z,25.42
2023-10-08T15:15:26.296Z,21.63
2023-10-08T15:17:53.902Z,22.45
2023-10-08T15:20:21.561Z,23.30
2023-10-08T15:22:49.846Z,21.33
2023-10-08T15:25:19.322Z,27.55
2023-10-08T15:27:48.755Z,22.25
2023-10-08T15:30:21.830Z,19.30
2023-10-08T15:32:51.067Z,20.52
2023-10-08T15:35:26.667Z,25.33
2023-10-08T15:37:55.627Z,21.00
2023-10-08T15:40:24.041Z,17.85
2023-10-08T15:42:53.980Z,18.27
2023-10-08T15:45:23.263Z,20.42
2023-10-08T15:47:51.468Z,23.00
2023-10-08T15:50:25.625Z,18.75
2023-10-08T15:52:54.596Z,20.70
2023-10-08T15:55:23.856Z,21.55
2023-10-08T15:57:51.767Z,19.05
2023-10-08T16:00:19.672Z,31.80
2023-10-08T16:02:48.554Z,23.30
2023-10-08T16:05:17.766Z,23.38
2023-10-08T16:07:45.805Z,22.50
2023-10-08T16:10:13.007Z,23.10
2023-10-08T16:12:39.994Z,27.45
2023-10-08T16:15:08.021Z,27.58
2023-10-08T16:17:35.097Z,23.08
2023-10-08T16:20:14.665Z,24.20
2023-10-08T16:22:45.334Z,25.85
2023-10-08T16:25:17.104Z,24.13
2023-10-08T16:27:50.643Z,24.35
2023-10-08T16:30:28.468Z,25.65
2023-10-08T16:32:58.265Z,25.33
2023-10-08T16:35:25.859Z,25.08
2023-10-08T16:37:54.935Z,22.27
2023-10-08T16:40:22.089Z,24.60
2023-10-08T16:42:50.183Z,20.42
2023-10-08T16:45:18.047Z,18.80
2023-10-08T16:47:48.558Z,23.38
2023-10-08T16:50:18.455Z,22.27
2023-10-08T16:52:47.132Z,23.42
2023-10-08T16:55:15.046Z,25.42
2023-10-08T16:57:42.348Z,22.40
2023-10-08T17:00:13.250Z,19.35
2023-10-08T17:02:41.465Z,22.90
2023-10-08T17:05:10.382Z,21.08
2023-10-08T17:07:37.238Z,22.80
2023-10-08T17:10:07.639Z,22.50
2023-10-08T17:12:34.804Z,20.45
2023-10-08T17:15:02.320Z,23.20
2023-10-08T17:17:29.322Z,29.77
2023-10-08T17:19:56.461Z,23.45
2023-10-08T17:22:23.397Z,24.50
2023-10-08T17:24:50.292Z,31.08
2023-10-08T17:27:17.240Z,25.10
2023-10-08T17:29:44.302Z,26.23
2023-10-08T17:32:11.216Z,26.75
2023-10-08T17:34:38.287Z,25.42
2023-10-08T17:37:05.252Z,25.88
2023-10-08T17:39:32.180Z,26.05
2023-10-08T17:41:59.713Z,25.58
2023-10-08T17:44:28.267Z,24.77
2023-10-08T17:46:55.388Z,20.45
2023-10-08T17:49:22.274Z,18.67
2023-10-08T17:51:49.219Z,25.50
2023-10-08T17:54:16.620Z,27.98
2023-10-08T17:56:43.700Z,31.45
2023-10-08T17:59:14.204Z,26.83
2023-10-08T18:01:43.186Z,26.73
2023-10-08T18:04:14.618Z,26.67
2023-10-08T18:06:45.762Z,29.08
2023-10-08T18:09:14.062Z,24.30
2023-10-08T18:11:43.910Z,23.25
2023-10-08T18:14:12.775Z,31.70
2023-10-08T18:16:42.099Z,33.33
2023-10-08T18:19:13.854Z,30.88
2023-10-08T18:21:43.020Z,25.27
2023-10-08T18:24:14.101Z,26.73
2023-10-08T18:26:43.950Z,25.02
2023-10-08T18:29:17.224Z,26.13
2023-10-08T18:31:46.290Z,24.58
2023-10-08T18:34:18.043Z,27.08
2023-10-08T18:36:45.045Z,31.80
2023-10-08T18:39:15.164Z,26.48
2023-10-08T18:41:44.263Z,28.67
2023-10-08T18:44:15.358Z,25.77
2023-10-08T18:46:45.699Z,31.70
2023-10-08T18:49:15.564Z,26.13
2023-10-08T18:51:44.113Z,29.67
2023-10-08T18:54:13.265Z,32.20
2023-10-08T18:56:41.754Z,34.03
2023-10-08T18:59:10.425Z,34.97
2023-10-08T19:01:39.062Z,31.90
2023-10-08T19:04:08.990Z,36.40
2023-10-08T19:06:36.978Z,34.28
2023-10-08T19:09:05.745Z,29.42
2023-10-08T19:11:34.408Z,33.00
2023-10-08T19:14:04.529Z,30.83
2023-10-08T19:16:32.549Z,32.90
2023-10-08T19:19:00.073Z,29.70
2023-10-08T19:21:28.487Z,32.67
2023-10-08T19:23:58.633Z,36.08
2023-10-08T19:26:28.543Z,35.85
2023-10-08T19:28:57.579Z,35.42
2023-10-08T19:31:25.091Z,45.65
2023-10-08T19:33:55.862Z,83.15
2023-10-08T19:36:24.340Z,36.90
2023-10-08T19:38:51.836Z,31.63
2023-10-08T19:41:25.876Z,39.30
2023-10-08T19:43:53.614Z,36.55
2023-10-08T19:46:25.118Z,31.52
2023-10-08T19:48:54.253Z,39.13
2023-10-08T19:51:23.490Z,42.70
2023-10-08T19:53:53.665Z,28.60
2023-10-08T19:56:21.557Z,33.20
2023-10-08T19:58:48.479Z,25.55
2023-10-08T20:01:17.493Z,26.55
2023-10-08T20:03:45.136Z,25.25
2023-10-08T20:06:12.725Z,34.72
2023-10-08T20:08:40.301Z,24.17
2023-10-08T20:11:08.485Z,19.58
2023-10-08T20:13:40.207Z,22.00
2023-10-08T20:16:07.726Z,23.40
2023-10-08T20:18:37.105Z,28.25
2023-10-08T20:21:07.725Z,21.00
2023-10-08T20:23:39.696Z,21.42
2023-10-08T20:26:16.040Z,28.58
2023-10-08T20:28:43.787Z,26.83
2023-10-08T20:31:16.042Z,22.33
2023-10-08T20:33:45.481Z,22.45
2023-10-08T20:36:18.604Z,19.80
2023-10-08T20:38:46.536Z,26.00
2023-10-08T20:41:18.162Z,17.15
2023-10-08T20:43:45.485Z,15.35
2023-10-08T20:46:17.341Z,20.77
2023-10-08T20:48:47.278Z,15.80
2023-10-08T20:51:18.791Z,15.15
2023-10-08T20:53:48.367Z,16.60
2023-10-08T20:56:19.240Z,13.73
2023-10-08T20:58:46.146Z,14.73
2023-10-08T21:01:15.666Z,18.05
2023-10-08T21:03:42.775Z,12.27
2023-10-08T21:06:10.971Z,13.27
2023-10-08T21:08:37.969Z,16.73
2023-10-08T21:11:04.891Z,21.30
2023-10-08T21:13:32.250Z,14.70
2023-10-08T21:16:03.605Z,14.95
2023-10-08T21:18:32.300Z,18.08
2023-10-08T21:21:04.828Z,13.32
2023-10-08T21:23:33.977Z,14.95
2023-10-08T21:26:01.193Z,12.18
2023-10-08T21:28:29.093Z,14.35
2023-10-08T21:30:56.629Z,13.43
2023-10-08T21:33:24.116Z,14.70
2023-10-08T21:35:51.114Z,13.57
2023-10-08T21:38:18.720Z,9.95
2023-10-08T21:40:46.456Z,12.25
2023-10-08T21:43:13.882Z,13.75
2023-10-08T21:45:41.128Z,14.57
2023-10-08T21:48:08.259Z,12.57
2023-10-08T21:50:36.937Z,16.13
2023-10-08T21:53:05.116Z,14.68
2023-10-08T21:55:32.052Z,12.60
2023-10-08T21:57:59.953Z,11.82
2023-10-08T22:00:27.166Z,14.43
2023-10-08T22:02:59.841Z,10.00
2023-10-08T22:05:31.430Z,11.55
2023-10-08T22:08:00.249Z,10.82
2023-10-08T22:10:29.394Z,14.55
2023-10-08T22:12:59.700Z,12.55
2023-10-08T22:15:30.542Z,18.45
2023-10-08T22:18:03.410Z,14.07
2023-10-08T22:20:40.277Z,15.93
2023-10-08T22:23:16.103Z,11.25
2023-10-08T22:25:50.081Z,10.82
2023-10-08T22:28:20.652Z,13.38
2023-10-08T22:30:52.929Z,9.93
2023-10-08T22:33:27.202Z,12.20
2023-10-08T22:35:58.894Z,11.63
2023-10-08T22:38:30.421Z,12.82
2023-10-08T22:41:00.475Z,12.52
2023-10-08T22:43:37.474Z,10.38
2023-10-08T22:46:07.981Z,9.20
2023-10-08T22:48:59.814Z,11.90
2023-10-08T22:51:27.156Z,9.40
2023-10-08T22:53:57.007Z,11.85
2023-10-08T22:56:25.481Z,13.40
2023-10-08T22:58:54.177Z,8.50
2023-10-08T23:01:23.279Z,10.40
2023-10-08T23:03:53.663Z,13.70
2023-10-08T23:06:23.191Z,14.35
2023-10-08T23:08:50.949Z,10.68
2023-10-08T23:11:18.374Z,9.85
2023-10-08T23:13:46.096Z,10.95
2023-10-08T23:16:16.331Z,9.65
2023-10-08T23:18:46.361Z,12.57
2023-10-08T23:21:16.742Z,11.80
2023-10-08T23:23:48.375Z,8.65
2023-10-08T23:26:17.308Z,9.90
2023-10-08T23:28:45.925Z,12.90
2023-10-08T23:31:14.153Z,13.52
2023-10-08T23:33:48.503Z,14.45
2023-10-08T23:36:17.588Z,14.82
2023-10-08T23:38:53.723Z,13.43
2023-10-08T23:41:33.164Z,14.57
2023-10-08T23:44:04.113Z,12.32
2023-10-08T23:46:33.038Z,13.55
2023-10-08T23:49:18.789Z,14.68
2023-10-08T23:51:52.841Z,10.10
2023-10-08T23:54:29.029Z,14.00
2023-10-08T23:57:00.711Z,15.35
2023-10-08T23:59:42.939Z,13.57
